sensor_id;sensor_type;location;lat;lon;timestamp;temperature;humidity
1878;DHT22;939;51.426;6.972;2023-07-29T00:02:12;19.70;99.90
1878;DHT22;939;51.426;6.972;2023-07-29T00:05:24;19.60;99.90
1878;DHT22;939;51.426;6.972;2023-07-29T00:08:24;19.60;99.90
1878;DHT22;939;51.426;6.972;2023-07-29T00:11:13;19.60;99.90
1878;DHT22;939;51.426;6.972;2023-07-29T00:14:15;19.60;99.90
1878;DHT22;939;51.426;6.972;2023-07-29T00:19:49;19.60;99.90
1878;DHT22;939;51.426;6.972;2023-07-29T00:22:25;19.60;99.90
1878;DHT22;939;51.426;6.972;2023-07-29T00:25:28;19.60;99.90
1878;DHT22;939;51.426;6.972;2023-07-29T00:28:07;19.60;99.90
1878;DHT22;939;51.426;6.972;2023-07-29T00:34:27;19.60;99.90
1878;DHT22;939;51.426;6.972;2023-07-29T00:41:26;19.60;99.90
1878;DHT22;939;51.426;6.972;2023-07-29T00:44:41;19.60;99.90
1878;DHT22;939;51.426;6.972;2023-07-29T00:47:18;19.70;99.90
1878;DHT22;939;51.426;6.972;2023-07-29T00:50:23;19.70;99.90
1878;DHT22;939;51.426;6.972;2023-07-29T01:00:11;19.70;99.90
1878;DHT22;939;51.426;6.972;2023-07-29T01:06:29;19.60;99.90
1878;DHT22;939;51.426;6.972;2023-07-29T01:09:23;19.60;99.90
1878;DHT22;939;51.426;6.972;2023-07-29T01:12:11;19.70;99.90
1878;DHT22;939;51.426;6.972;2023-07-29T01:15:07;19.70;99.90
1878;DHT22;939;51.426;6.972;2023-07-29T01:21:20;19.70;99.90
1878;DHT22;939;51.426;6.972;2023-07-29T01:24:05;19.70;99.90
1878;DHT22;939;51.426;6.972;2023-07-29T01:27:20;19.70;99.90
1878;DHT22;939;51.426;6.972;2023-07-29T01:37:00;19.70;99.90
1878;DHT22;939;51.426;6.972;2023-07-29T01:39:58;19.70;99.90
1878;DHT22;939;51.426;6.972;2023-07-29T01:42:41;19.70;99.90
1878;DHT22;939;51.426;6.972;2023-07-29T01:45:23;19.70;99.90
1878;DHT22;939;51.426;6.972;2023-07-29T01:47:52;19.80;99.90
1878;DHT22;939;51.426;6.972;2023-07-29T01:50:48;19.80;99.90
1878;DHT22;939;51.426;6.972;2023-07-29T01:54:00;19.70;99.90
1878;DHT22;939;51.426;6.972;2023-07-29T01:56:54;19.80;99.90
1878;DHT22;939;51.426;6.972;2023-07-29T02:02:53;19.70;99.90
1878;DHT22;939;51.426;6.972;2023-07-29T02:05:53;19.80;99.90
1878;DHT22;939;51.426;6.972;2023-07-29T02:08:37;19.70;99.90
1878;DHT22;939;51.426;6.972;2023-07-29T02:11:25;19.70;99.90
1878;DHT22;939;51.426;6.972;2023-07-29T02:14:06;19.60;99.90
1878;DHT22;939;51.426;6.972;2023-07-29T02:16:38;19.70;99.90
1878;DHT22;939;51.426;6.972;2023-07-29T02:19:09;19.70;99.90
1878;DHT22;939;51.426;6.972;2023-07-29T02:21:50;19.70;99.90
1878;DHT22;939;51.426;6.972;2023-07-29T02:24:18;19.80;99.90
1878;DHT22;939;51.426;6.972;2023-07-29T02:26:46;19.80;99.90
1878;DHT22;939;51.426;6.972;2023-07-29T02:29:19;19.80;99.90
1878;DHT22;939;51.426;6.972;2023-07-29T02:31:50;19.80;99.90
1878;DHT22;939;51.426;6.972;2023-07-29T02:34:18;19.80;99.90
1878;DHT22;939;51.426;6.972;2023-07-29T02:36:49;19.80;99.90
1878;DHT22;939;51.426;6.972;2023-07-29T02:39:22;19.80;99.90
1878;DHT22;939;51.426;6.972;2023-07-29T02:41:50;19.80;99.90
1878;DHT22;939;51.426;6.972;2023-07-29T02:44:19;19.80;99.90
1878;DHT22;939;51.426;6.972;2023-07-29T02:46:46;19.80;99.90
1878;DHT22;939;51.426;6.972;2023-07-29T02:49:15;19.80;99.90
1878;DHT22;939;51.426;6.972;2023-07-29T02:51:42;19.80;99.90
1878;DHT22;939;51.426;6.972;2023-07-29T02:54:09;19.80;99.90
1878;DHT22;939;51.426;6.972;2023-07-29T02:56:36;19.80;99.90
1878;DHT22;939;51.426;6.972;2023-07-29T02:59:03;19.80;99.90
1878;DHT22;939;51.426;6.972;2023-07-29T03:01:38;19.80;99.90
1878;DHT22;939;51.426;6.972;2023-07-29T03:04:05;19.90;99.90
1878;DHT22;939;51.426;6.972;2023-07-29T03:06:34;19.90;99.90
1878;DHT22;939;51.426;6.972;2023-07-29T03:09:04;19.90;99.90
1878;DHT22;939;51.426;6.972;2023-07-29T03:11:47;19.80;99.90
1878;DHT22;939;51.426;6.972;2023-07-29T03:14:25;19.80;99.90
1878;DHT22;939;51.426;6.972;2023-07-29T03:16:58;19.90;99.90
1878;DHT22;939;51.426;6.972;2023-07-29T03:22:56;19.80;99.90
1878;DHT22;939;51.426;6.972;2023-07-29T03:25:38;19.80;99.90
1878;DHT22;939;51.426;6.972;2023-07-29T03:28:08;19.80;99.90
1878;DHT22;939;51.426;6.972;2023-07-29T03:30:40;19.90;99.90
1878;DHT22;939;51.426;6.972;2023-07-29T03:33:14;19.90;99.90
1878;DHT22;939;51.426;6.972;2023-07-29T03:35:49;19.90;99.90
1878;DHT22;939;51.426;6.972;2023-07-29T03:38:19;19.80;99.90
1878;DHT22;939;51.426;6.972;2023-07-29T03:40:46;19.80;99.90
1878;DHT22;939;51.426;6.972;2023-07-29T03:43:19;19.70;99.90
1878;DHT22;939;51.426;6.972;2023-07-29T03:45:55;19.70;99.90
1878;DHT22;939;51.426;6.972;2023-07-29T03:48:30;19.70;99.90
1878;DHT22;939;51.426;6.972;2023-07-29T03:51:11;19.60;99.90
1878;DHT22;939;51.426;6.972;2023-07-29T03:53:54;19.60;99.90
1878;DHT22;939;51.426;6.972;2023-07-29T03:56:30;19.60;99.90
1878;DHT22;939;51.426;6.972;2023-07-29T04:02:11;19.80;99.90
1878;DHT22;939;51.426;6.972;2023-07-29T04:04:54;19.70;99.90
1878;DHT22;939;51.426;6.972;2023-07-29T04:07:56;19.60;99.90
1878;DHT22;939;51.426;6.972;2023-07-29T04:10:28;19.70;99.90
1878;DHT22;939;51.426;6.972;2023-07-29T04:12:57;19.80;99.90
1878;DHT22;939;51.426;6.972;2023-07-29T04:15:24;19.80;99.90
1878;DHT22;939;51.426;6.972;2023-07-29T04:17:51;19.80;99.90
1878;DHT22;939;51.426;6.972;2023-07-29T04:20:19;19.80;99.90
1878;DHT22;939;51.426;6.972;2023-07-29T04:22:49;19.80;99.90
1878;DHT22;939;51.426;6.972;2023-07-29T04:25:18;19.80;99.90
1878;DHT22;939;51.426;6.972;2023-07-29T04:27:45;19.80;99.90
1878;DHT22;939;51.426;6.972;2023-07-29T04:30:13;19.80;99.90
1878;DHT22;939;51.426;6.972;2023-07-29T04:32:40;19.80;99.90
1878;DHT22;939;51.426;6.972;2023-07-29T04:35:09;19.80;99.90
1878;DHT22;939;51.426;6.972;2023-07-29T04:37:38;19.90;99.90
1878;DHT22;939;51.426;6.972;2023-07-29T04:40:06;19.80;99.90
1878;DHT22;939;51.426;6.972;2023-07-29T04:42:34;19.80;99.90
1878;DHT22;939;51.426;6.972;2023-07-29T04:45:12;19.90;99.90
1878;DHT22;939;51.426;6.972;2023-07-29T04:47:39;19.80;99.90
1878;DHT22;939;51.426;6.972;2023-07-29T04:50:07;19.80;99.90
1878;DHT22;939;51.426;6.972;2023-07-29T04:52:39;19.90;99.90
1878;DHT22;939;51.426;6.972;2023-07-29T04:55:12;19.80;99.90
1878;DHT22;939;51.426;6.972;2023-07-29T04:57:53;19.60;99.90
1878;DHT22;939;51.426;6.972;2023-07-29T05:00:40;19.60;99.90
1878;DHT22;939;51.426;6.972;2023-07-29T05:03:08;19.60;99.90
1878;DHT22;939;51.426;6.972;2023-07-29T05:05:48;19.50;99.90
1878;DHT22;939;51.426;6.972;2023-07-29T05:08:18;19.60;99.90
1878;DHT22;939;51.426;6.972;2023-07-29T05:10:49;19.50;99.90
1878;DHT22;939;51.426;6.972;2023-07-29T05:13:17;19.60;99.90
1878;DHT22;939;51.426;6.972;2023-07-29T05:16:01;19.60;99.90
1878;DHT22;939;51.426;6.972;2023-07-29T05:18:33;19.60;99.90
1878;DHT22;939;51.426;6.972;2023-07-29T05:21:06;19.60;99.90
1878;DHT22;939;51.426;6.972;2023-07-29T05:23:38;19.60;99.90
1878;DHT22;939;51.426;6.972;2023-07-29T05:26:30;19.60;99.90
1878;DHT22;939;51.426;6.972;2023-07-29T05:29:08;19.60;99.90
1878;DHT22;939;51.426;6.972;2023-07-29T05:31:36;19.60;99.90
1878;DHT22;939;51.426;6.972;2023-07-29T05:34:03;19.70;99.90
1878;DHT22;939;51.426;6.972;2023-07-29T05:36:43;19.70;99.90
1878;DHT22;939;51.426;6.972;2023-07-29T05:39:15;19.70;99.90
1878;DHT22;939;51.426;6.972;2023-07-29T05:41:49;19.70;99.90
1878;DHT22;939;51.426;6.972;2023-07-29T05:44:22;19.70;99.90
1878;DHT22;939;51.426;6.972;2023-07-29T05:46:55;19.70;99.90
1878;DHT22;939;51.426;6.972;2023-07-29T05:49:22;19.70;99.90
1878;DHT22;939;51.426;6.972;2023-07-29T05:51:52;19.70;99.90
1878;DHT22;939;51.426;6.972;2023-07-29T05:54:21;19.70;99.90
1878;DHT22;939;51.426;6.972;2023-07-29T05:56:48;19.60;99.90
1878;DHT22;939;51.426;6.972;2023-07-29T05:59:15;19.50;99.90
1878;DHT22;939;51.426;6.972;2023-07-29T06:01:48;19.50;99.90
1878;DHT22;939;51.426;6.972;2023-07-29T06:04:18;19.50;99.90
1878;DHT22;939;51.426;6.972;2023-07-29T06:06:48;19.50;99.90
1878;DHT22;939;51.426;6.972;2023-07-29T06:09:15;19.50;99.90
1878;DHT22;939;51.426;6.972;2023-07-29T06:11:44;19.50;99.90
1878;DHT22;939;51.426;6.972;2023-07-29T06:14:32;19.40;99.90
1878;DHT22;939;51.426;6.972;2023-07-29T06:17:10;19.40;99.90
1878;DHT22;939;51.426;6.972;2023-07-29T06:19:48;19.40;99.90
1878;DHT22;939;51.426;6.972;2023-07-29T06:22:42;19.40;99.90
1878;DHT22;939;51.426;6.972;2023-07-29T06:25:12;19.40;99.90
1878;DHT22;939;51.426;6.972;2023-07-29T06:27:43;19.40;99.90
1878;DHT22;939;51.426;6.972;2023-07-29T06:30:23;19.40;99.90
1878;DHT22;939;51.426;6.972;2023-07-29T06:32:55;19.30;99.90
1878;DHT22;939;51.426;6.972;2023-07-29T06:35:28;19.10;99.90
1878;DHT22;939;51.426;6.972;2023-07-29T06:37:58;19.20;99.90
1878;DHT22;939;51.426;6.972;2023-07-29T06:40:31;19.30;99.90
1878;DHT22;939;51.426;6.972;2023-07-29T06:43:10;19.30;99.90
1878;DHT22;939;51.426;6.972;2023-07-29T06:45:40;19.30;99.90
1878;DHT22;939;51.426;6.972;2023-07-29T06:48:08;19.30;99.90
1878;DHT22;939;51.426;6.972;2023-07-29T06:50:35;19.30;99.90
1878;DHT22;939;51.426;6.972;2023-07-29T06:53:03;19.30;99.90
1878;DHT22;939;51.426;6.972;2023-07-29T06:55:52;19.40;99.90
1878;DHT22;939;51.426;6.972;2023-07-29T06:58:31;19.40;99.90
1878;DHT22;939;51.426;6.972;2023-07-29T07:01:26;19.30;99.90
1878;DHT22;939;51.426;6.972;2023-07-29T07:04:06;19.30;99.90
1878;DHT22;939;51.426;6.972;2023-07-29T07:09:51;19.30;99.90
1878;DHT22;939;51.426;6.972;2023-07-29T07:12:23;19.30;99.90
1878;DHT22;939;51.426;6.972;2023-07-29T07:19:05;19.30;99.90
1878;DHT22;939;51.426;6.972;2023-07-29T07:21:41;19.30;99.90
1878;DHT22;939;51.426;6.972;2023-07-29T07:24:16;19.30;99.90
1878;DHT22;939;51.426;6.972;2023-07-29T07:27:15;19.20;99.90
1878;DHT22;939;51.426;6.972;2023-07-29T07:30:10;19.20;99.90
1878;DHT22;939;51.426;6.972;2023-07-29T07:36:21;19.40;99.90
1878;DHT22;939;51.426;6.972;2023-07-29T07:39:05;19.50;99.90
1878;DHT22;939;51.426;6.972;2023-07-29T07:41:35;19.50;99.90
1878;DHT22;939;51.426;6.972;2023-07-29T07:44:10;19.70;99.90
1878;DHT22;939;51.426;6.972;2023-07-29T07:46:41;19.60;99.90
1878;DHT22;939;51.426;6.972;2023-07-29T07:49:13;19.80;99.90
1878;DHT22;939;51.426;6.972;2023-07-29T07:51:50;19.80;99.90
1878;DHT22;939;51.426;6.972;2023-07-29T07:54:28;19.90;99.90
1878;DHT22;939;51.426;6.972;2023-07-29T07:57:10;20.00;99.90
1878;DHT22;939;51.426;6.972;2023-07-29T07:59:38;20.10;99.90
1878;DHT22;939;51.426;6.972;2023-07-29T08:02:05;20.10;99.90
1878;DHT22;939;51.426;6.972;2023-07-29T08:04:38;20.00;99.90
1878;DHT22;939;51.426;6.972;2023-07-29T08:07:06;20.00;99.90
1878;DHT22;939;51.426;6.972;2023-07-29T08:09:33;20.10;99.90
1878;DHT22;939;51.426;6.972;2023-07-29T08:12:03;20.10;99.90
1878;DHT22;939;51.426;6.972;2023-07-29T08:14:30;20.00;99.90
1878;DHT22;939;51.426;6.972;2023-07-29T08:16:59;20.00;99.90
1878;DHT22;939;51.426;6.972;2023-07-29T08:19:27;20.10;99.90
1878;DHT22;939;51.426;6.972;2023-07-29T08:21:54;20.10;99.90
1878;DHT22;939;51.426;6.972;2023-07-29T08:24:22;20.00;99.90
1878;DHT22;939;51.426;6.972;2023-07-29T08:26:49;19.90;99.90
1878;DHT22;939;51.426;6.972;2023-07-29T08:29:17;20.00;99.90
1878;DHT22;939;51.426;6.972;2023-07-29T08:31:44;20.20;99.90
1878;DHT22;939;51.426;6.972;2023-07-29T08:34:17;20.20;99.90
1878;DHT22;939;51.426;6.972;2023-07-29T08:36:55;20.30;99.90
1878;DHT22;939;51.426;6.972;2023-07-29T08:39:40;20.50;99.90
1878;DHT22;939;51.426;6.972;2023-07-29T08:42:13;20.50;99.90
1878;DHT22;939;51.426;6.972;2023-07-29T08:44:44;20.50;99.90
1878;DHT22;939;51.426;6.972;2023-07-29T08:47:18;20.50;99.90
1878;DHT22;939;51.426;6.972;2023-07-29T08:49:55;20.50;99.90
1878;DHT22;939;51.426;6.972;2023-07-29T08:52:25;20.60;99.90
1878;DHT22;939;51.426;6.972;2023-07-29T09:06:02;20.70;99.90
1878;DHT22;939;51.426;6.972;2023-07-29T09:08:32;20.70;99.90
1878;DHT22;939;51.426;6.972;2023-07-29T09:11:00;20.70;99.90
1878;DHT22;939;51.426;6.972;2023-07-29T09:13:43;20.80;99.90
1878;DHT22;939;51.426;6.972;2023-07-29T09:19:01;21.10;99.90
1878;DHT22;939;51.426;6.972;2023-07-29T09:21:41;21.30;99.90
1878;DHT22;939;51.426;6.972;2023-07-29T09:24:12;21.50;99.90
1878;DHT22;939;51.426;6.972;2023-07-29T09:26:51;21.50;99.90
1878;DHT22;939;51.426;6.972;2023-07-29T09:29:23;21.40;99.90
1878;DHT22;939;51.426;6.972;2023-07-29T09:31:50;21.50;99.90
1878;DHT22;939;51.426;6.972;2023-07-29T09:34:27;21.60;99.90
1878;DHT22;939;51.426;6.972;2023-07-29T09:40:14;21.50;99.90
1878;DHT22;939;51.426;6.972;2023-07-29T09:42:48;21.50;99.90
1878;DHT22;939;51.426;6.972;2023-07-29T09:45:35;21.50;99.90
1878;DHT22;939;51.426;6.972;2023-07-29T10:14:38;20.80;99.90
1878;DHT22;939;51.426;6.972;2023-07-29T10:17:08;21.20;99.90
1878;DHT22;939;51.426;6.972;2023-07-29T10:19:48;21.50;99.90
1878;DHT22;939;51.426;6.972;2023-07-29T10:22:20;21.80;99.90
1878;DHT22;939;51.426;6.972;2023-07-29T10:24:49;22.40;99.90
1878;DHT22;939;51.426;6.972;2023-07-29T10:27:38;23.20;99.90
1878;DHT22;939;51.426;6.972;2023-07-29T10:30:09;23.30;99.90
1878;DHT22;939;51.426;6.972;2023-07-29T10:32:42;23.60;99.90
1878;DHT22;939;51.426;6.972;2023-07-29T10:35:13;24.00;99.90
1878;DHT22;939;51.426;6.972;2023-07-29T10:37:42;24.40;99.90
1878;DHT22;939;51.426;6.972;2023-07-29T10:40:11;24.30;99.90
1878;DHT22;939;51.426;6.972;2023-07-29T10:42:58;24.10;99.90
1878;DHT22;939;51.426;6.972;2023-07-29T10:45:36;23.70;99.90
1878;DHT22;939;51.426;6.972;2023-07-29T10:48:06;23.20;99.90
1878;DHT22;939;51.426;6.972;2023-07-29T10:50:45;23.00;99.90
1878;DHT22;939;51.426;6.972;2023-07-29T10:53:21;22.90;99.90
1878;DHT22;939;51.426;6.972;2023-07-29T10:56:06;23.20;99.90
1878;DHT22;939;51.426;6.972;2023-07-29T10:58:36;23.20;99.90
1878;DHT22;939;51.426;6.972;2023-07-29T11:01:12;23.00;99.90
1878;DHT22;939;51.426;6.972;2023-07-29T11:03:42;22.80;99.90
1878;DHT22;939;51.426;6.972;2023-07-29T11:06:29;23.00;99.90
1878;DHT22;939;51.426;6.972;2023-07-29T11:09:02;23.60;99.90
1878;DHT22;939;51.426;6.972;2023-07-29T11:12:41;24.40;99.90
1878;DHT22;939;51.426;6.972;2023-07-29T11:15:21;26.70;99.90
1878;DHT22;939;51.426;6.972;2023-07-29T11:17:56;27.20;99.90
1878;DHT22;939;51.426;6.972;2023-07-29T11:20:25;27.20;98.40
1878;DHT22;939;51.426;6.972;2023-07-29T11:23:16;27.20;99.30
1878;DHT22;939;51.426;6.972;2023-07-29T11:25:45;26.90;97.30
1878;DHT22;939;51.426;6.972;2023-07-29T11:28:16;26.70;98.50
1878;DHT22;939;51.426;6.972;2023-07-29T11:31:17;25.90;99.70
1878;DHT22;939;51.426;6.972;2023-07-29T11:40:55;24.30;99.90
1878;DHT22;939;51.426;6.972;2023-07-29T11:43:54;24.10;99.90
1878;DHT22;939;51.426;6.972;2023-07-29T11:59:39;23.50;99.90
1878;DHT22;939;51.426;6.972;2023-07-29T12:02:10;23.90;99.90
1878;DHT22;939;51.426;6.972;2023-07-29T12:04:38;24.30;99.90
1878;DHT22;939;51.426;6.972;2023-07-29T12:07:06;24.60;99.90
1878;DHT22;939;51.426;6.972;2023-07-29T12:09:33;24.70;99.90
1878;DHT22;939;51.426;6.972;2023-07-29T12:12:01;24.90;99.90
1878;DHT22;939;51.426;6.972;2023-07-29T12:14:28;24.80;99.90
1878;DHT22;939;51.426;6.972;2023-07-29T12:17:00;24.60;99.90
1878;DHT22;939;51.426;6.972;2023-07-29T12:19:31;24.30;99.90
1878;DHT22;939;51.426;6.972;2023-07-29T12:21:58;24.20;99.90
1878;DHT22;939;51.426;6.972;2023-07-29T12:24:25;24.20;99.90
1878;DHT22;939;51.426;6.972;2023-07-29T12:26:52;24.00;99.90
1878;DHT22;939;51.426;6.972;2023-07-29T12:29:19;24.00;99.90
1878;DHT22;939;51.426;6.972;2023-07-29T12:31:46;24.00;99.90
1878;DHT22;939;51.426;6.972;2023-07-29T12:34:18;24.00;99.90
1878;DHT22;939;51.426;6.972;2023-07-29T12:36:47;23.80;99.90
1878;DHT22;939;51.426;6.972;2023-07-29T12:39:19;23.90;99.90
1878;DHT22;939;51.426;6.972;2023-07-29T12:41:46;23.90;99.90
1878;DHT22;939;51.426;6.972;2023-07-29T12:44:13;23.90;99.90
1878;DHT22;939;51.426;6.972;2023-07-29T12:46:41;23.90;99.90
1878;DHT22;939;51.426;6.972;2023-07-29T12:49:08;23.80;99.90
1878;DHT22;939;51.426;6.972;2023-07-29T12:51:36;23.70;99.90
1878;DHT22;939;51.426;6.972;2023-07-29T12:54:03;23.80;99.90
1878;DHT22;939;51.426;6.972;2023-07-29T12:56:30;23.70;99.90
1878;DHT22;939;51.426;6.972;2023-07-29T12:58:57;23.80;99.90
1878;DHT22;939;51.426;6.972;2023-07-29T13:01:24;23.70;99.90
1878;DHT22;939;51.426;6.972;2023-07-29T13:03:51;23.70;99.90
1878;DHT22;939;51.426;6.972;2023-07-29T13:06:18;23.80;99.90
1878;DHT22;939;51.426;6.972;2023-07-29T13:08:47;23.80;99.90
1878;DHT22;939;51.426;6.972;2023-07-29T13:11:14;23.90;99.90
1878;DHT22;939;51.426;6.972;2023-07-29T13:13:41;23.90;99.90
1878;DHT22;939;51.426;6.972;2023-07-29T13:16:09;23.90;99.90
1878;DHT22;939;51.426;6.972;2023-07-29T13:18:36;23.90;99.90
1878;DHT22;939;51.426;6.972;2023-07-29T13:21:03;23.80;99.90
1878;DHT22;939;51.426;6.972;2023-07-29T13:23:30;23.80;99.90
1878;DHT22;939;51.426;6.972;2023-07-29T13:25:58;23.80;99.90
1878;DHT22;939;51.426;6.972;2023-07-29T13:28:25;23.90;99.90
1878;DHT22;939;51.426;6.972;2023-07-29T13:30:52;23.80;99.90
1878;DHT22;939;51.426;6.972;2023-07-29T13:33:18;23.60;99.90
1878;DHT22;939;51.426;6.972;2023-07-29T13:35:45;23.70;99.90
1878;DHT22;939;51.426;6.972;2023-07-29T13:38:12;23.60;99.90
1878;DHT22;939;51.426;6.972;2023-07-29T13:40:39;23.60;99.90
1878;DHT22;939;51.426;6.972;2023-07-29T13:43:07;23.30;99.90
1878;DHT22;939;51.426;6.972;2023-07-29T13:45:35;23.00;99.90
1878;DHT22;939;51.426;6.972;2023-07-29T13:48:02;23.10;99.90
1878;DHT22;939;51.426;6.972;2023-07-29T13:50:28;23.00;99.90
1878;DHT22;939;51.426;6.972;2023-07-29T13:52:55;22.90;99.90
1878;DHT22;939;51.426;6.972;2023-07-29T13:55:22;22.90;99.90
1878;DHT22;939;51.426;6.972;2023-07-29T13:57:49;22.80;99.90
1878;DHT22;939;51.426;6.972;2023-07-29T14:00:17;22.80;99.90
1878;DHT22;939;51.426;6.972;2023-07-29T14:02:44;22.60;99.90
1878;DHT22;939;51.426;6.972;2023-07-29T14:05:11;22.50;99.90
1878;DHT22;939;51.426;6.972;2023-07-29T14:07:39;22.20;99.90
1878;DHT22;939;51.426;6.972;2023-07-29T14:10:07;21.90;99.90
1878;DHT22;939;51.426;6.972;2023-07-29T14:12:35;21.80;99.90
1878;DHT22;939;51.426;6.972;2023-07-29T14:15:03;21.60;99.90
1878;DHT22;939;51.426;6.972;2023-07-29T14:17:32;21.50;99.90
1878;DHT22;939;51.426;6.972;2023-07-29T14:19:59;21.40;99.90
1878;DHT22;939;51.426;6.972;2023-07-29T14:22:26;21.40;99.90
1878;DHT22;939;51.426;6.972;2023-07-29T14:24:53;21.40;99.90
1878;DHT22;939;51.426;6.972;2023-07-29T14:27:20;21.40;99.90
1878;DHT22;939;51.426;6.972;2023-07-29T14:29:46;21.40;99.90
1878;DHT22;939;51.426;6.972;2023-07-29T14:32:13;21.50;99.90
1878;DHT22;939;51.426;6.972;2023-07-29T14:34:41;21.30;99.90
1878;DHT22;939;51.426;6.972;2023-07-29T14:37:08;21.50;99.90
1878;DHT22;939;51.426;6.972;2023-07-29T14:39:35;21.40;99.90
1878;DHT22;939;51.426;6.972;2023-07-29T14:42:03;21.40;99.90
1878;DHT22;939;51.426;6.972;2023-07-29T14:44:30;21.50;99.90
1878;DHT22;939;51.426;6.972;2023-07-29T14:46:56;21.60;99.90
1878;DHT22;939;51.426;6.972;2023-07-29T14:49:23;21.60;99.90
1878;DHT22;939;51.426;6.972;2023-07-29T14:51:51;21.40;99.90
1878;DHT22;939;51.426;6.972;2023-07-29T14:54:18;21.60;99.90
1878;DHT22;939;51.426;6.972;2023-07-29T14:56:45;21.60;99.90
1878;DHT22;939;51.426;6.972;2023-07-29T14:59:12;21.70;99.90
1878;DHT22;939;51.426;6.972;2023-07-29T15:01:39;21.80;99.90
1878;DHT22;939;51.426;6.972;2023-07-29T15:04:06;21.80;99.90
1878;DHT22;939;51.426;6.972;2023-07-29T15:06:33;21.70;99.90
1878;DHT22;939;51.426;6.972;2023-07-29T15:09:01;21.70;99.90
1878;DHT22;939;51.426;6.972;2023-07-29T15:11:28;21.60;99.90
1878;DHT22;939;51.426;6.972;2023-07-29T15:13:55;21.60;99.90
1878;DHT22;939;51.426;6.972;2023-07-29T15:16:23;21.60;99.90
1878;DHT22;939;51.426;6.972;2023-07-29T15:18:50;21.50;99.90
1878;DHT22;939;51.426;6.972;2023-07-29T15:21:17;21.50;99.90
1878;DHT22;939;51.426;6.972;2023-07-29T15:23:44;21.50;99.90
1878;DHT22;939;51.426;6.972;2023-07-29T15:26:13;21.50;99.90
1878;DHT22;939;51.426;6.972;2023-07-29T15:28:40;21.60;99.90
1878;DHT22;939;51.426;6.972;2023-07-29T15:31:07;21.60;99.90
1878;DHT22;939;51.426;6.972;2023-07-29T15:33:34;21.80;99.90
1878;DHT22;939;51.426;6.972;2023-07-29T15:36:00;21.80;99.90
1878;DHT22;939;51.426;6.972;2023-07-29T15:38:27;21.90;99.90
1878;DHT22;939;51.426;6.972;2023-07-29T15:40:54;21.90;99.90
1878;DHT22;939;51.426;6.972;2023-07-29T15:43:23;21.80;99.90
1878;DHT22;939;51.426;6.972;2023-07-29T15:45:50;21.70;99.90
1878;DHT22;939;51.426;6.972;2023-07-29T15:48:16;21.80;99.90
1878;DHT22;939;51.426;6.972;2023-07-29T15:50:44;21.80;99.90
1878;DHT22;939;51.426;6.972;2023-07-29T15:53:11;21.80;99.90
1878;DHT22;939;51.426;6.972;2023-07-29T15:55:38;21.90;99.90
1878;DHT22;939;51.426;6.972;2023-07-29T15:58:04;22.00;99.90
1878;DHT22;939;51.426;6.972;2023-07-29T16:00:33;22.20;99.90
1878;DHT22;939;51.426;6.972;2023-07-29T16:02:59;22.30;99.90
1878;DHT22;939;51.426;6.972;2023-07-29T16:05:26;22.30;99.90
1878;DHT22;939;51.426;6.972;2023-07-29T16:07:53;22.40;99.90
1878;DHT22;939;51.426;6.972;2023-07-29T16:10:23;22.40;99.90
1878;DHT22;939;51.426;6.972;2023-07-29T16:12:50;22.40;99.90
1878;DHT22;939;51.426;6.972;2023-07-29T16:15:16;22.50;99.90
1878;DHT22;939;51.426;6.972;2023-07-29T16:17:45;22.40;99.90
1878;DHT22;939;51.426;6.972;2023-07-29T16:20:15;22.30;99.90
1878;DHT22;939;51.426;6.972;2023-07-29T16:22:42;22.30;99.90
1878;DHT22;939;51.426;6.972;2023-07-29T16:25:09;22.20;99.90
1878;DHT22;939;51.426;6.972;2023-07-29T16:27:36;22.30;99.90
1878;DHT22;939;51.426;6.972;2023-07-29T16:30:06;22.20;99.90
1878;DHT22;939;51.426;6.972;2023-07-29T16:32:32;22.20;99.90
1878;DHT22;939;51.426;6.972;2023-07-29T16:35:01;22.20;99.90
1878;DHT22;939;51.426;6.972;2023-07-29T16:37:28;22.10;99.90
1878;DHT22;939;51.426;6.972;2023-07-29T16:39:55;22.10;99.90
1878;DHT22;939;51.426;6.972;2023-07-29T16:42:22;22.00;99.90
1878;DHT22;939;51.426;6.972;2023-07-29T16:44:48;21.90;99.90
1878;DHT22;939;51.426;6.972;2023-07-29T16:47:15;22.00;99.90
1878;DHT22;939;51.426;6.972;2023-07-29T16:49:43;22.00;99.90
1878;DHT22;939;51.426;6.972;2023-07-29T16:52:11;21.90;99.90
1878;DHT22;939;51.426;6.972;2023-07-29T16:54:38;21.90;99.90
1878;DHT22;939;51.426;6.972;2023-07-29T16:57:05;21.80;99.90
1878;DHT22;939;51.426;6.972;2023-07-29T16:59:32;21.90;99.90
1878;DHT22;939;51.426;6.972;2023-07-29T17:01:59;21.80;99.90
1878;DHT22;939;51.426;6.972;2023-07-29T17:04:26;21.70;99.90
1878;DHT22;939;51.426;6.972;2023-07-29T17:06:53;21.60;99.90
1878;DHT22;939;51.426;6.972;2023-07-29T17:09:22;21.60;99.90
1878;DHT22;939;51.426;6.972;2023-07-29T17:11:49;21.60;99.90
1878;DHT22;939;51.426;6.972;2023-07-29T17:14:15;21.50;99.90
1878;DHT22;939;51.426;6.972;2023-07-29T17:16:45;21.60;99.90
1878;DHT22;939;51.426;6.972;2023-07-29T17:19:12;21.70;99.90
1878;DHT22;939;51.426;6.972;2023-07-29T17:21:39;21.60;99.90
1878;DHT22;939;51.426;6.972;2023-07-29T17:24:05;21.50;99.90
1878;DHT22;939;51.426;6.972;2023-07-29T17:26:34;21.60;99.90
1878;DHT22;939;51.426;6.972;2023-07-29T17:29:00;21.60;99.90
1878;DHT22;939;51.426;6.972;2023-07-29T17:31:27;21.60;99.90
1878;DHT22;939;51.426;6.972;2023-07-29T17:33:54;21.50;99.90
1878;DHT22;939;51.426;6.972;2023-07-29T17:36:21;21.50;99.90
1878;DHT22;939;51.426;6.972;2023-07-29T17:38:48;21.40;99.90
1878;DHT22;939;51.426;6.972;2023-07-29T17:41:15;21.40;99.90
1878;DHT22;939;51.426;6.972;2023-07-29T17:43:43;21.40;99.90
1878;DHT22;939;51.426;6.972;2023-07-29T17:46:13;21.40;99.90
1878;DHT22;939;51.426;6.972;2023-07-29T17:48:42;21.30;99.90
1878;DHT22;939;51.426;6.972;2023-07-29T17:51:09;21.20;99.90
1878;DHT22;939;51.426;6.972;2023-07-29T17:53:36;21.30;99.90
1878;DHT22;939;51.426;6.972;2023-07-29T17:56:06;21.40;99.90
1878;DHT22;939;51.426;6.972;2023-07-29T17:58:34;21.00;99.90
1878;DHT22;939;51.426;6.972;2023-07-29T18:01:05;20.20;99.90
1878;DHT22;939;51.426;6.972;2023-07-29T18:03:32;19.70;99.90
1878;DHT22;939;51.426;6.972;2023-07-29T18:05:59;19.60;99.90
1878;DHT22;939;51.426;6.972;2023-07-29T18:08:26;19.50;99.90
1878;DHT22;939;51.426;6.972;2023-07-29T18:10:53;19.30;99.90
1878;DHT22;939;51.426;6.972;2023-07-29T18:13:21;19.10;99.90
1878;DHT22;939;51.426;6.972;2023-07-29T18:15:51;18.90;99.90
1878;DHT22;939;51.426;6.972;2023-07-29T18:18:19;18.90;99.90
1878;DHT22;939;51.426;6.972;2023-07-29T18:20:48;18.90;99.90
1878;DHT22;939;51.426;6.972;2023-07-29T18:23:15;19.00;99.90
1878;DHT22;939;51.426;6.972;2023-07-29T18:25:42;19.10;99.90
1878;DHT22;939;51.426;6.972;2023-07-29T18:28:09;19.00;99.90
1878;DHT22;939;51.426;6.972;2023-07-29T18:30:41;19.10;99.90
1878;DHT22;939;51.426;6.972;2023-07-29T18:33:08;19.10;99.90
1878;DHT22;939;51.426;6.972;2023-07-29T18:35:40;19.20;99.90
1878;DHT22;939;51.426;6.972;2023-07-29T18:38:07;19.30;99.90
1878;DHT22;939;51.426;6.972;2023-07-29T18:40:34;19.40;99.90
1878;DHT22;939;51.426;6.972;2023-07-29T18:43:01;19.40;99.90
1878;DHT22;939;51.426;6.972;2023-07-29T18:45:28;19.50;99.90
1878;DHT22;939;51.426;6.972;2023-07-29T18:47:55;19.50;99.90
1878;DHT22;939;51.426;6.972;2023-07-29T18:50:22;19.30;99.90